Time;durP1;ratioP1;P1;durP2;ratioP2;P2;SDS_P1;SDS_P2;PMS_P1;PMS_P2;Temp;Humidity;BMP_temperature;BMP_pressure;BME280_temperature;BME280_humidity;BME280_pressure;Samples;Min_cycle;Max_cycle;Signal;HPM_P1;HPM_P2
2024/01/02 00:01:33;;;;;;;;;0.00;0.00;;;;;10.36;100.00;99989.16;5069588;28;47255;-56
2024/01/02 00:03:59;;;;;;;;;0.00;0.00;;;;;10.38;100.00;99984.63;5073137;28;45406;-56
2024/01/02 00:06:24;;;;;;;;;0.00;0.00;;;;;10.37;100.00;99975.78;5045449;28;68323;-56
2024/01/02 00:08:49;;;;;;;;;0.00;0.00;;;;;10.35;100.00;99985.66;5071309;28;45558;-57
2024/01/02 00:11:15;;;;;;;;;0.00;0.00;;;;;10.36;100.00;99979.38;5065440;28;72832;-56
2024/01/02 00:13:40;;;;;;;;;0.00;0.00;;;;;10.38;100.00;99976.66;5066249;28;70951;-56
2024/01/02 00:16:05;;;;;;;;;0.00;0.00;;;;;10.41;100.00;99974.63;5065689;28;45371;-56
2024/01/02 00:18:31;;;;;;;;;0.00;0.00;;;;;10.43;100.00;99964.75;5072816;28;45402;-56
2024/01/02 00:20:56;;;;;;;;;0.00;0.00;;;;;10.46;100.00;99954.91;5041943;28;47404;-56
2024/01/02 00:23:22;;;;;;;;;0.00;0.00;;;;;10.47;100.00;99944.16;5063642;28;67628;-56
2024/01/02 00:25:47;;;;;;;;;0.00;0.00;;;;;10.48;100.00;99935.25;5070669;28;68260;-57
2024/01/02 00:28:13;;;;;;;;;0.00;0.00;;;;;10.48;100.00;99937.91;5073576;28;45609;-57
2024/01/02 00:30:40;;;;;;;;;0.00;0.00;;;;;10.51;100.00;99931.53;5051458;28;46951;-57
2024/01/02 00:33:06;;;;;;;;;0.00;0.00;;;;;10.53;100.00;99917.19;5075399;28;45510;-55
2024/01/02 00:35:31;;;;;;;;;1.00;0.00;;;;;10.54;100.00;99926.84;5074567;28;45403;-54
2024/01/02 00:37:57;;;;;;;;;0.00;0.00;;;;;10.54;100.00;99900.25;5069796;28;45714;-56
2024/01/02 00:40:22;;;;;;;;;0.00;0.00;;;;;10.55;100.00;99890.50;5057718;28;47157;-56
2024/01/02 00:42:47;;;;;;;;;0.00;0.00;;;;;10.53;100.00;99874.66;5078698;28;61092;-56
2024/01/02 00:45:13;;;;;;;;;0.00;0.00;;;;;10.55;100.00;99891.34;5074958;28;45355;-56
2024/01/02 00:47:38;;;;;;;;;0.00;0.00;;;;;10.56;100.00;99879.75;5069559;28;49182;-56
2024/01/02 00:50:04;;;;;;;;;0.00;0.00;;;;;10.59;100.00;99878.72;5044848;28;47933;-56
2024/01/02 00:52:29;;;;;;;;;0.00;0.00;;;;;10.62;100.00;99881.16;5068708;28;45332;-55
2024/01/02 00:54:55;;;;;;;;;0.00;0.00;;;;;10.65;100.00;99869.47;5077959;28;45638;-57
2024/01/02 00:57:20;;;;;;;;;0.00;0.00;;;;;10.69;100.00;99870.97;5076355;28;45490;-56
2024/01/02 00:59:46;;;;;;;;;0.00;0.00;;;;;10.74;100.00;99869.72;5076603;28;75888;-57
2024/01/02 01:02:11;;;;;;;;;0.00;0.00;;;;;10.76;100.00;99856.31;5066670;28;70423;-56
2024/01/02 01:04:40;;;;;;;;;0.00;0.00;;;;;10.80;100.00;99863.16;5050092;28;45511;-55
2024/01/02 01:07:06;;;;;;;;;0.00;0.00;;;;;10.82;100.00;99850.59;5073393;28;45586;-56
2024/01/02 01:09:31;;;;;;;;;0.00;0.00;;;;;10.84;100.00;99830.06;5074161;28;75649;-55
2024/01/02 01:11:56;;;;;;;;;0.00;0.00;;;;;10.87;100.00;99826.34;5077179;28;45457;-55
2024/01/02 01:14:22;;;;;;;;;0.00;0.00;;;;;10.86;100.00;99822.84;5079508;28;65935;-56
2024/01/02 01:16:47;;;;;;;;;0.00;0.00;;;;;10.88;100.00;99820.91;5066134;28;68680;-56
2024/01/02 01:19:12;;;;;;;;;0.00;0.00;;;;;10.90;100.00;99810.19;5063415;28;45435;-56
2024/01/02 01:21:37;;;;;;;;;0.00;0.00;;;;;10.90;100.00;99812.84;5075738;28;52904;-56
2024/01/02 01:24:03;;;;;;;;;0.00;0.00;;;;;10.92;100.00;99824.22;5060100;28;67059;-54
2024/01/02 01:26:28;;;;;;;;;0.00;0.00;;;;;10.93;100.00;99813.47;5072688;28;45552;-56
2024/01/02 01:28:54;;;;;;;;;0.00;0.00;;;;;10.95;100.00;99813.41;5077526;28;46738;-56
2024/01/02 01:31:19;;;;;;;;;0.00;0.00;;;;;10.97;100.00;99797.31;5056214;28;72037;-55
2024/01/02 01:33:44;;;;;;;;;0.00;0.00;;;;;10.98;100.00;99786.56;5069696;28;45467;-56
2024/01/02 01:36:10;;;;;;;;;0.00;0.00;;;;;10.97;100.00;99803.50;5069892;28;69518;-54
2024/01/02 01:38:35;;;;;;;;;0.00;0.00;;;;;10.98;100.00;99802.53;5067514;28;75610;-56
2024/01/02 01:41:00;;;;;;;;;0.00;0.00;;;;;10.98;100.00;99791.91;5067568;28;71924;-56
2024/01/02 01:43:26;;;;;;;;;1.67;0.00;;;;;11.00;100.00;99803.31;5080544;28;45423;-55
2024/01/02 01:45:51;;;;;;;;;0.00;0.00;;;;;11.02;100.00;99781.91;5070117;28;58866;-54
2024/01/02 01:48:17;;;;;;;;;1.00;0.00;;;;;11.03;100.00;99795.09;5062106;28;74664;-54
2024/01/02 01:50:42;;;;;;;;;0.00;0.00;;;;;11.04;100.00;99791.50;5067748;28;65179;-56
2024/01/02 01:53:08;;;;;;;;;0.00;0.00;;;;;11.06;100.00;99788.72;5057447;28;67631;-55
2024/01/02 01:55:34;;;;;;;;;0.00;0.00;;;;;11.07;100.00;99771.81;5058183;28;45369;-55
2024/01/02 01:57:59;;;;;;;;;0.00;0.00;;;;;11.06;100.00;99778.91;5069017;28;46785;-52
2024/01/02 02:00:25;;;;;;;;;0.00;0.00;;;;;11.08;100.00;99787.66;5076045;28;57783;-55
2024/01/02 02:02:51;;;;;;;;;0.00;0.00;;;;;11.07;100.00;99795.75;5074960;28;45751;-52
2024/01/02 02:05:17;;;;;;;;;0.00;0.00;;;;;11.09;100.00;99786.72;5077087;28;45625;-56
2024/01/02 02:07:43;;;;;;;;;0.00;0.00;;;;;11.11;100.00;99785.72;5064664;28;74459;-55
2024/01/02 02:10:08;;;;;;;;;0.00;0.00;;;;;11.11;100.00;99783.94;5064994;28;45419;-55
2024/01/02 02:12:35;;;;;;;;;0.00;0.00;;;;;11.11;100.00;99783.94;5053927;28;45491;-56
2024/01/02 02:15:00;;;;;;;;;0.00;0.00;;;;;11.11;100.00;99780.41;5067370;28;45408;-53
2024/01/02 02:17:30;;;;;;;;;0.00;0.00;;;;;11.12;100.00;99774.13;5058743;28;49218;-53
2024/01/02 02:19:56;;;;;;;;;0.00;0.00;;;;;11.12;100.00;99772.34;5068901;28;45436;-52
2024/01/02 02:22:34;;;;;;;;;0.00;0.00;;;;;11.13;100.00;99770.50;5068949;28;45391;-52
2024/01/02 02:24:59;;;;;;;;;1.00;0.00;;;;;11.14;100.00;99769.56;5072453;28;45402;-54
2024/01/02 02:27:27;;;;;;;;;0.00;0.00;;;;;11.16;100.00;99768.50;5074621;28;46716;-55
2024/01/02 02:29:52;;;;;;;;;0.00;0.00;;;;;11.19;100.00;99768.28;5059217;28;45475;-53
2024/01/02 02:32:17;;;;;;;;;0.00;0.00;;;;;11.19;100.00;99768.28;5077794;28;45404;-56
2024/01/02 02:34:43;;;;;;;;;0.00;0.00;;;;;11.21;100.00;99768.16;5074406;28;46148;-53
2024/01/02 02:37:08;;;;;;;;;0.00;0.00;;;;;11.23;100.00;99763.59;5073396;28;75576;-53
2024/01/02 02:39:33;;;;;;;;;0.00;0.00;;;;;11.23;100.00;99774.25;5071442;28;68150;-52
2024/01/02 02:41:59;;;;;;;;;0.00;0.00;;;;;11.27;100.00;99767.75;5064846;28;68424;-53
2024/01/02 02:44:24;;;;;;;;;0.00;0.00;;;;;11.29;100.00;99770.31;5063450;28;52247;-54
2024/01/02 02:46:50;;;;;;;;;0.00;0.00;;;;;11.30;100.00;99777.34;5062037;28;45386;-51
2024/01/02 02:49:15;;;;;;;;;0.00;0.00;;;;;11.30;100.00;99780.84;5068053;28;73300;-51
2024/01/02 02:51:40;;;;;;;;;1.00;0.00;;;;;11.32;100.00;99752.31;5070886;28;45584;-55
2024/01/02 02:54:05;;;;;;;;;0.00;0.00;;;;;11.35;100.00;99783.19;5076912;28;71012;-55
2024/01/02 02:56:31;;;;;;;;;0.00;0.00;;;;;11.35;100.00;99773.38;5073177;28;74554;-55
2024/01/02 02:58:56;;;;;;;;;0.00;0.00;;;;;11.36;100.00;99767.09;5070169;28;73023;-55
2024/01/02 03:01:22;;;;;;;;;0.00;0.00;;;;;11.37;100.00;99755.50;5072020;28;69387;-55
2024/01/02 03:03:48;;;;;;;;;0.00;0.00;;;;;11.37;100.00;99763.50;5079758;28;45750;-54
2024/01/02 03:06:13;;;;;;;;;0.00;0.00;;;;;11.36;100.00;99747.63;5067898;28;46228;-55
2024/01/02 03:08:38;;;;;;;;;0.00;0.00;;;;;11.34;100.00;99774.38;5073351;28;72910;-53
2024/01/02 03:11:03;;;;;;;;;0.00;0.00;;;;;11.35;100.00;99760.06;5070423;28;67294;-54
2024/01/02 03:13:29;;;;;;;;;0.00;0.00;;;;;11.35;100.00;99775.22;5075417;28;67644;-54
2024/01/02 03:15:54;;;;;;;;;0.00;0.00;;;;;11.34;100.00;99747.75;5078711;28;47065;-55
2024/01/02 03:18:20;;;;;;;;;0.00;0.00;;;;;11.32;100.00;99752.31;5076031;28;69580;-53
2024/01/02 03:20:46;;;;;;;;;0.00;0.00;;;;;11.29;100.00;99744.56;5068747;28;45642;-54
2024/01/02 03:23:11;;;;;;;;;0.00;0.00;;;;;11.30;100.00;99756.88;5061423;28;45368;-53
2024/01/02 03:25:37;;;;;;;;;0.00;0.00;;;;;11.31;100.00;99752.44;5066450;28;75405;-54
2024/01/02 03:28:03;;;;;;;;;0.00;0.00;;;;;11.30;100.00;99748.91;5060726;28;45424;-55
2024/01/02 03:30:28;;;;;;;;;1.00;0.00;;;;;11.30;100.00;99746.22;5069102;28;45341;-54
2024/01/02 03:32:54;;;;;;;;;1.00;0.00;;;;;11.30;100.00;99759.53;5074672;28;45547;-53
2024/01/02 03:35:20;;;;;;;;;0.00;0.00;;;;;11.32;100.00;99756.81;5070655;28;46195;-54
2024/01/02 03:37:45;;;;;;;;;0.00;0.00;;;;;11.33;100.00;99753.16;5078553;28;45612;-51
2024/01/02 03:40:11;;;;;;;;;0.00;0.00;;;;;11.35;100.00;99759.22;5070490;28;46614;-54
2024/01/02 03:42:36;;;;;;;;;0.00;0.00;;;;;11.37;100.00;99758.16;5075710;28;45434;-54
2024/01/02 03:45:02;;;;;;;;;0.00;0.00;;;;;11.37;100.00;99760.00;5056405;28;63111;-54
2024/01/02 03:47:27;;;;;;;;;0.00;0.00;;;;;11.38;100.00;99746.56;5073133;28;45702;-54
2024/01/02 03:49:53;;;;;;;;;0.00;0.00;;;;;11.40;100.00;99762.44;5063804;28;63111;-53
2024/01/02 03:52:18;;;;;;;;;0.00;0.00;;;;;11.42;100.00;99750.72;5061924;28;45667;-54
2024/01/02 03:54:44;;;;;;;;;0.00;0.00;;;;;11.41;100.00;99754.31;5057690;28;75450;-55
2024/01/02 03:57:09;;;;;;;;;0.00;0.00;;;;;11.45;100.00;99767.44;5057943;28;45476;-55
2024/01/02 03:59:35;;;;;;;;;0.00;0.00;;;;;11.43;100.00;99738.25;5060647;28;45307;-54
2024/01/02 04:02:01;;;;;;;;;0.00;0.00;;;;;11.41;100.00;99741.00;5072455;28;45393;-54
2024/01/02 04:04:26;;;;;;;;;0.00;0.00;;;;;11.44;100.00;99739.09;5062574;28;76113;-54
2024/01/02 04:06:51;;;;;;;;;0.00;0.00;;;;;11.42;100.00;99737.41;5060562;28;51468;-54
2024/01/02 04:09:17;;;;;;;;;0.00;0.00;;;;;11.45;100.00;99740.81;5065635;28;68280;-51
2024/01/02 04:11:42;;;;;;;;;1.00;0.00;;;;;11.44;100.00;99741.78;5043583;28;67999;-54
2024/01/02 04:14:07;;;;;;;;;0.00;0.00;;;;;11.45;100.00;99743.47;5057959;28;74462;-54
2024/01/02 04:16:33;;;;;;;;;0.00;0.00;;;;;11.42;100.00;99734.75;5061431;28;72837;-52
2024/01/02 04:18:58;;;;;;;;;0.00;0.00;;;;;11.42;100.00;99731.22;5069194;28;45375;-53
2024/01/02 04:21:23;;;;;;;;;0.00;0.00;;;;;11.41;100.00;99730.38;5071682;28;49393;-54
2024/01/02 04:23:49;;;;;;;;;0.00;0.00;;;;;11.39;100.00;99731.44;5068494;28;46133;-53
2024/01/02 04:26:14;;;;;;;;;0.00;0.00;;;;;11.38;100.00;99732.38;5049343;28;51737;-53
2024/01/02 04:28:39;;;;;;;;;0.00;0.00;;;;;11.36;100.00;99724.50;5062866;28;69113;-53
2024/01/02 04:31:06;;;;;;;;;0.00;0.00;;;;;11.34;100.00;99733.56;5061642;28;70214;-53
2024/01/02 04:33:32;;;;;;;;;0.00;0.00;;;;;11.35;100.00;99730.78;5080764;28;45417;-53
2024/01/02 04:35:57;;;;;;;;;0.00;0.00;;;;;11.34;100.00;99738.88;5074717;28;45418;-53
2024/01/02 04:38:22;;;;;;;;;0.00;0.00;;;;;11.33;100.00;99734.50;5068789;28;45387;-56
2024/01/02 04:40:48;;;;;;;;;0.00;0.00;;;;;11.31;100.00;99731.97;5069294;28;70332;-54
2024/01/02 04:43:13;;;;;;;;;0.00;0.00;;;;;11.29;100.00;99735.69;5078071;28;45794;-53
2024/01/02 04:45:38;;;;;;;;;0.00;0.00;;;;;11.31;100.00;99739.97;5081496;28;45432;-54
2024/01/02 04:48:04;;;;;;;;;0.00;0.00;;;;;11.33;100.00;99732.72;5080270;28;69174;-57
2024/01/02 04:50:29;;;;;;;;;0.00;0.00;;;;;11.34;100.00;99728.25;5064215;28;45610;-56
2024/01/02 04:52:55;;;;;;;;;0.00;0.00;;;;;11.34;100.00;99729.09;5079723;28;75501;-57
2024/01/02 04:55:20;;;;;;;;;0.00;0.00;;;;;11.34;100.00;99729.09;5077181;28;63497;-55
2024/01/02 04:57:45;;;;;;;;;0.00;0.00;;;;;11.34;100.00;99729.09;5080112;28;67421;-55
2024/01/02 05:00:11;;;;;;;;;0.00;0.00;;;;;11.35;100.00;99732.63;5078128;28;66241;-53
2024/01/02 05:02:36;;;;;;;;;0.00;0.00;;;;;11.35;100.00;99738.78;5073705;28;46363;-54
2024/01/02 05:05:02;;;;;;;;;0.00;0.00;;;;;11.32;100.00;99706.22;5079543;28;70026;-56
2024/01/02 05:07:27;;;;;;;;;0.00;0.00;;;;;11.29;100.00;99725.91;5063334;28;45640;-55
2024/01/02 05:09:53;;;;;;;;;0.00;0.00;;;;;11.26;100.00;99731.44;5078639;28;69423;-56
2024/01/02 05:12:18;;;;;;;;;0.00;0.00;;;;;11.23;100.00;99718.34;5066145;28;45792;-54
2024/01/02 05:14:43;;;;;;;;;0.00;0.00;;;;;11.21;100.00;99726.44;5075493;28;45361;-52
2024/01/02 05:17:09;;;;;;;;;0.00;0.00;;;;;11.20;100.00;99713.25;5079650;28;69996;-53
2024/01/02 05:19:35;;;;;;;;;0.00;0.00;;;;;11.19;100.00;99714.22;5069121;28;45487;-55
2024/01/02 05:22:00;;;;;;;;;0.00;0.00;;;;;11.16;100.00;99714.41;5071436;28;45343;-55
2024/01/02 05:24:26;;;;;;;;;0.00;0.00;;;;;11.13;100.00;99718.13;5080202;28;45422;-55
2024/01/02 05:26:51;;;;;;;;;0.00;0.00;;;;;11.14;100.00;99719.00;5071971;28;45322;-54
2024/01/02 05:29:17;;;;;;;;;0.00;0.00;;;;;11.15;100.00;99728.69;5038314;28;45468;-55
2024/01/02 05:31:42;;;;;;;;;0.00;0.00;;;;;11.13;100.00;99711.97;5060838;28;46182;-54
2024/01/02 05:34:08;;;;;;;;;0.00;0.00;;;;;11.11;100.00;99700.56;5050143;28;71781;-56
2024/01/02 05:36:33;;;;;;;;;0.33;0.00;;;;;11.08;100.00;99704.28;5069892;28;66080;-54
2024/01/02 05:38:59;;;;;;;;;0.00;0.00;;;;;11.07;100.00;99692.81;5072157;28;70203;-54
2024/01/02 05:41:24;;;;;;;;;0.67;0.00;;;;;11.07;100.00;99686.66;5050094;28;46003;-55
2024/01/02 05:43:49;;;;;;;;;0.00;0.00;;;;;11.07;100.00;99698.13;5072785;28;45295;-54
2024/01/02 05:46:15;;;;;;;;;0.00;0.00;;;;;11.09;100.00;99692.69;5073081;28;65745;-55
2024/01/02 05:48:40;;;;;;;;;0.00;0.00;;;;;11.11;100.00;99698.78;5079706;28;68613;-54
2024/01/02 05:51:05;;;;;;;;;0.00;0.00;;;;;11.13;100.00;99706.66;5078201;28;69644;-56
2024/01/02 05:53:31;;;;;;;;;0.00;0.00;;;;;11.13;100.00;99702.16;5079787;28;45330;-55
2024/01/02 05:55:56;;;;;;;;;0.00;0.00;;;;;11.15;100.00;99686.09;5079100;28;58214;-54
2024/01/02 05:58:21;;;;;;;;;0.00;0.00;;;;;11.16;100.00;99693.97;5067421;28;69352;-55
2024/01/02 06:00:47;;;;;;;;;0.00;0.00;;;;;11.18;100.00;99696.53;5073848;28;74970;-55
2024/01/02 06:03:12;;;;;;;;;0.00;0.00;;;;;11.14;100.00;99687.06;5075638;28;45369;-54
2024/01/02 06:05:37;;;;;;;;;0.00;0.00;;;;;11.17;100.00;99684.19;5076865;28;57396;-55
2024/01/02 06:08:03;;;;;;;;;0.00;0.00;;;;;11.15;100.00;99694.94;5077212;28;69520;-55
2024/01/02 06:10:29;;;;;;;;;3.00;0.00;;;;;11.13;100.00;99685.34;5058940;28;46389;-55
2024/01/02 06:12:54;;;;;;;;;0.00;0.00;;;;;11.14;100.00;99677.25;5037557;28;45430;-54
2024/01/02 06:15:19;;;;;;;;;0.00;0.00;;;;;11.15;100.00;99692.28;5042710;28;66811;-54
2024/01/02 06:17:45;;;;;;;;;0.00;0.00;;;;;11.12;100.00;99676.53;5068780;28;70558;-55
2024/01/02 06:20:10;;;;;;;;;0.00;0.00;;;;;11.11;100.00;99684.59;5062444;28;45393;-55
2024/01/02 06:22:37;;;;;;;;;0.00;0.00;;;;;11.11;100.00;99684.59;5045690;28;45498;-54
2024/01/02 06:25:08;;;;;;;;;0.00;0.00;;;;;11.12;100.00;99692.50;5069398;28;45451;-54
2024/01/02 06:27:34;;;;;;;;;0.00;0.00;;;;;11.12;100.00;99684.50;5079183;28;45388;-54
2024/01/02 06:29:59;;;;;;;;;0.00;0.00;;;;;11.09;100.00;99676.72;5071755;28;46012;-54
2024/01/02 06:32:25;;;;;;;;;0.00;0.00;;;;;11.05;100.00;99686.72;5074098;28;71774;-55
2024/01/02 06:34:51;;;;;;;;;0.00;0.00;;;;;11.06;100.00;99679.63;5078486;28;66591;-55
2024/01/02 06:37:17;;;;;;;;;0.00;0.00;;;;;11.06;100.00;99674.28;5058392;28;54394;-55
2024/01/02 06:39:42;;;;;;;;;0.00;0.00;;;;;11.03;100.00;99658.53;5077758;28;45540;-55
2024/01/02 06:42:07;;;;;;;;;0.00;0.00;;;;;11.01;100.00;99658.63;5065850;28;72885;-54
2024/01/02 06:44:33;;;;;;;;;0.00;0.00;;;;;11.01;100.00;99666.63;5068441;28;69439;-55
2024/01/02 06:46:58;;;;;;;;;0.00;0.00;;;;;11.01;100.00;99661.28;5077683;28;45425;-54
2024/01/02 06:49:23;;;;;;;;;0.00;0.00;;;;;11.01;100.00;99661.28;5061728;28;72877;-54
2024/01/02 06:51:49;;;;;;;;;0.00;0.00;;;;;10.98;100.00;99644.72;5071158;28;74103;-55
2024/01/02 06:54:14;;;;;;;;;0.00;0.00;;;;;10.95;100.00;99651.09;5058110;28;68539;-55
2024/01/02 06:56:40;;;;;;;;;0.00;0.00;;;;;10.92;100.00;99640.66;5053428;28;45256;-54
2024/01/02 06:59:06;;;;;;;;;0.00;0.00;;;;;10.88;100.00;99648.00;5065215;28;45276;-54
2024/01/02 07:01:31;;;;;;;;;0.00;0.00;;;;;10.84;100.00;99629.72;5071169;28;45342;-54
2024/01/02 07:03:57;;;;;;;;;1.00;0.00;;;;;10.79;100.00;99638.00;5059860;28;62451;-54
2024/01/02 07:06:22;;;;;;;;;0.00;0.00;;;;;10.78;100.00;99635.44;5061056;28;66420;-55
2024/01/02 07:08:47;;;;;;;;;0.00;0.00;;;;;10.79;100.00;99637.16;5059055;28;62734;-55
2024/01/02 07:11:13;;;;;;;;;0.00;0.00;;;;;10.76;100.00;99633.75;5063974;28;73166;-55
2024/01/02 07:13:38;;;;;;;;;0.00;0.00;;;;;10.74;100.00;99627.69;5066636;28;64905;-58
2024/01/02 07:16:04;;;;;;;;;0.00;0.00;;;;;10.74;100.00;99625.03;5069625;28;45273;-56
2024/01/02 07:18:30;;;;;;;;;0.00;0.00;;;;;10.73;100.00;99625.97;5068464;28;46321;-56
2024/01/02 07:20:56;;;;;;;;;1.00;0.00;;;;;10.74;100.00;99633.00;5059594;28;45384;-55
2024/01/02 07:23:22;;;;;;;;;0.00;0.00;;;;;10.74;100.00;99630.34;5078860;28;45421;-55
2024/01/02 07:25:47;;;;;;;;;0.00;0.00;;;;;10.71;100.00;99614.59;5078684;28;45405;-55
2024/01/02 07:28:12;;;;;;;;;0.67;0.67;;;;;10.73;100.00;99625.16;5066601;28;75508;-55
2024/01/02 07:30:38;;;;;;;;;0.00;0.00;;;;;10.74;100.00;99627.69;5057599;28;72183;-56
2024/01/02 07:33:03;;;;;;;;;0.00;0.00;;;;;10.74;100.00;99630.34;5065997;28;68218;-53
2024/01/02 07:35:29;;;;;;;;;0.00;0.00;;;;;10.73;100.00;99604.72;5059586;28;45453;-50
2024/01/02 07:37:54;;;;;;;;;0.00;0.00;;;;;10.73;100.00;99625.16;5067932;28;58976;-50
2024/01/02 07:40:19;;;;;;;;;0.00;0.00;;;;;10.73;100.00;99620.66;5070943;28;71402;-49
2024/01/02 07:42:44;;;;;;;;;0.00;0.00;;;;;10.77;100.00;99634.59;5074335;28;50083;-51
2024/01/02 07:45:10;;;;;;;;;0.00;0.00;;;;;10.77;100.00;99642.59;5072925;28;66571;-46
2024/01/02 07:47:35;;;;;;;;;0.00;0.00;;;;;10.74;100.00;99621.50;5075611;28;46078;-50
2024/01/02 07:50:04;;;;;;;;;0.00;0.00;;;;;10.69;100.00;99620.97;5065331;28;45403;-48
2024/01/02 07:52:30;;;;;;;;;0.00;0.00;;;;;10.71;100.00;99624.38;5058560;28;45750;-46
2024/01/02 07:54:55;;;;;;;;;0.00;0.00;;;;;10.68;100.00;99625.44;5073247;28;45515;-51
2024/01/02 07:57:20;;;;;;;;;0.00;0.00;;;;;10.70;100.00;99607.59;5068178;28;46251;-46
2024/01/02 07:59:46;;;;;;;;;0.00;0.00;;;;;10.73;100.00;99614.50;5071675;28;45508;-47
2024/01/02 08:02:11;;;;;;;;;0.00;0.00;;;;;10.72;100.00;99615.47;5074941;28;68468;-48
2024/01/02 08:04:36;;;;;;;;;0.00;0.00;;;;;10.74;100.00;99597.56;5076133;28;45622;-49
2024/01/02 08:07:02;;;;;;;;;0.00;0.00;;;;;10.76;100.00;99643.53;5075034;28;69333;-49
2024/01/02 08:09:27;;;;;;;;;0.00;0.00;;;;;10.79;100.00;99598.09;5075592;28;64514;-50
2024/01/02 08:11:52;;;;;;;;;1.00;0.00;;;;;10.82;100.00;99613.00;5077028;28;45467;-48
2024/01/02 08:14:18;;;;;;;;;0.00;0.00;;;;;10.80;100.00;99594.47;5078706;28;45414;-51
2024/01/02 08:16:43;;;;;;;;;0.00;0.00;;;;;10.85;100.00;99604.81;5077472;28;71831;-48
2024/01/02 08:19:08;;;;;;;;;3.00;0.00;;;;;10.85;100.00;99610.13;5073356;28;55927;-47
2024/01/02 08:21:34;;;;;;;;;0.00;0.00;;;;;10.84;100.00;99593.31;5066905;28;45418;-46
2024/01/02 08:23:59;;;;;;;;;0.00;0.00;;;;;10.83;100.00;99590.75;5068921;28;45578;-47
2024/01/02 08:26:25;;;;;;;;;0.00;0.00;;;;;10.83;100.00;99596.91;5064455;28;64178;-49
2024/01/02 08:28:50;;;;;;;;;0.00;0.00;;;;;10.85;100.00;99608.31;5057267;28;48203;-51
2024/01/02 08:31:16;;;;;;;;;0.00;0.00;;;;;10.86;100.00;99595.84;5071003;28;62636;-50
2024/01/02 08:33:41;;;;;;;;;0.00;0.00;;;;;10.85;100.00;99584.38;5069609;28;45478;-50
2024/01/02 08:36:09;;;;;;;;;0.00;0.00;;;;;10.84;100.00;99590.66;5059396;28;45249;-48
2024/01/02 08:38:35;;;;;;;;;0.00;0.00;;;;;10.85;100.00;99588.84;5074680;28;45391;-47
2024/01/02 08:41:00;;;;;;;;;0.00;0.00;;;;;10.86;100.00;99587.88;5072120;28;45656;-47
2024/01/02 08:43:25;;;;;;;;;0.00;0.00;;;;;10.83;100.00;99586.28;5068916;28;70885;-49
2024/01/02 08:45:51;;;;;;;;;0.00;0.00;;;;;10.87;100.00;99579.81;5059299;28;75649;-49
2024/01/02 08:48:16;;;;;;;;;1.00;0.00;;;;;10.89;100.00;99574.38;5073553;28;68641;-48
2024/01/02 08:50:44;;;;;;;;;0.00;0.00;;;;;10.88;100.00;99565.53;5063539;28;62672;-46
2024/01/02 08:53:11;;;;;;;;;0.00;0.00;;;;;10.90;100.00;99568.09;5059395;28;45524;-49
2024/01/02 08:55:36;;;;;;;;;0.00;0.00;;;;;10.92;100.00;99558.19;5077471;28;46142;-51
2024/01/02 08:58:03;;;;;;;;;0.00;0.00;;;;;10.90;100.00;99560.97;5068070;28;45367;-50
2024/01/02 09:00:29;;;;;;;;;0.00;0.00;;;;;10.89;100.00;99563.72;5059085;28;45241;-48
2024/01/02 09:02:54;;;;;;;;;0.00;0.00;;;;;10.86;100.00;99551.50;5064501;28;45625;-51
2024/01/02 09:05:19;;;;;;;;;0.00;0.00;;;;;10.84;100.00;99548.09;5062207;28;74408;-50
2024/01/02 09:07:45;;;;;;;;;0.00;0.00;;;;;10.84;100.00;99560.53;5081171;28;45567;-50
2024/01/02 09:10:10;;;;;;;;;0.00;0.00;;;;;10.82;100.00;99559.78;5061657;28;60507;-52
2024/01/02 09:12:35;;;;;;;;;0.00;0.00;;;;;10.81;100.00;99556.28;5080787;28;53253;-51
2024/01/02 09:15:01;;;;;;;;;0.67;0.00;;;;;10.83;100.00;99556.19;5066134;28;68592;-46
2024/01/02 09:17:26;;;;;;;;;0.00;0.00;;;;;10.85;100.00;99546.28;5067483;28;72804;-51
2024/01/02 09:19:51;;;;;;;;;0.00;0.00;;;;;10.86;100.00;99534.66;5068217;28;64514;-50
2024/01/02 09:22:17;;;;;;;;;0.00;0.00;;;;;10.92;100.00;99539.56;5081070;28;45818;-48
2024/01/02 09:24:42;;;;;;;;;0.00;0.00;;;;;10.93;100.00;99538.59;5050521;28;77035;-46
2024/01/02 09:27:09;;;;;;;;;0.00;0.00;;;;;10.96;100.00;99524.22;5079586;28;45478;-49
2024/01/02 09:29:34;;;;;;;;;0.00;0.00;;;;;11.00;100.00;99536.34;5061976;28;60527;-49
2024/01/02 09:32:00;;;;;;;;;0.67;0.00;;;;;11.03;100.00;99534.31;5071491;28;70338;-49
2024/01/02 09:34:25;;;;;;;;;0.00;0.00;;;;;11.06;100.00;99542.06;5061190;28;46020;-51
2024/01/02 09:36:52;;;;;;;;;0.00;0.00;;;;;11.10;100.00;99537.38;5067937;28;68531;-50
2024/01/02 09:39:17;;;;;;;;;0.00;0.00;;;;;11.14;100.00;99532.72;5071495;28;45374;-52
2024/01/02 09:42:11;;;;;;;;;0.00;0.00;;;;;11.17;100.00;99525.34;5071635;28;51686;-52
2024/01/02 09:45:07;;;;;;;;;0.00;0.00;;;;;11.23;100.00;99534.69;5079091;28;47049;-50
2024/01/02 09:47:32;;;;;;;;;0.00;0.00;;;;;11.28;100.00;99531.69;5080575;28;45624;-48
2024/01/02 09:50:10;;;;;;;;;0.00;0.00;;;;;11.31;100.00;99519.00;5080253;28;45380;-52
2024/01/02 09:52:36;;;;;;;;;0.00;0.00;;;;;11.34;100.00;99532.09;5060613;28;45706;-50
2024/01/02 09:55:23;;;;;;;;;0.00;0.00;;;;;11.37;100.00;99531.03;5078492;28;47445;-52
2024/01/02 09:58:09;;;;;;;;;0.00;0.00;;;;;11.41;100.00;99535.16;5044572;28;45375;-50
2024/01/02 10:00:52;;;;;;;;;0.00;0.00;;;;;11.45;100.00;99525.16;5077609;28;45440;-49
2024/01/02 10:03:48;;;;;;;;;0.00;0.00;;;;;11.45;100.00;99520.66;5058201;28;45493;-51
2024/01/02 10:06:20;;;;;;;;;0.00;0.00;;;;;11.47;100.00;99509.88;5070554;28;45367;-52
2024/01/02 10:08:59;;;;;;;;;0.00;0.00;;;;;11.47;100.00;99510.75;5078528;28;45565;-48
2024/01/02 10:11:32;;;;;;;;;0.00;0.00;;;;;11.49;100.00;99513.31;5076483;28;45426;-50
2024/01/02 10:14:02;;;;;;;;;0.00;0.00;;;;;11.43;100.00;99514.59;5070455;28;45426;-49
2024/01/02 10:16:38;;;;;;;;;0.00;0.00;;;;;11.39;100.00;99527.28;5061979;28;46061;-46
2024/01/02 10:19:24;;;;;;;;;0.33;0.00;;;;;11.34;100.00;99516.13;5056581;28;45841;-50
2024/01/02 10:22:09;;;;;;;;;0.00;0.00;;;;;11.34;100.00;99523.25;5045148;28;45382;-51
2024/01/02 10:24:49;;;;;;;;;0.00;0.00;;;;;11.30;100.00;99508.47;5074562;28;45406;-51
2024/01/02 10:27:15;;;;;;;;;0.00;0.00;;;;;11.29;100.00;99523.59;5070397;28;45404;-48
2024/01/02 10:30:04;;;;;;;;;0.00;0.00;;;;;11.25;100.00;99516.78;5062642;28;45548;-50
2024/01/02 10:33:09;;;;;;;;;0.00;0.00;;;;;11.23;100.00;99524.03;5077113;28;45450;-48
2024/01/02 10:35:44;;;;;;;;;0.00;0.00;;;;;11.21;100.00;99518.84;5035719;28;46637;-50
2024/01/02 10:38:21;;;;;;;;;0.00;0.00;;;;;11.21;100.00;99516.19;5079232;28;45343;-51
2024/01/02 10:40:51;;;;;;;;;0.00;0.00;;;;;11.23;100.00;99518.72;5062929;28;45386;-50
2024/01/02 10:43:19;;;;;;;;;0.00;0.00;;;;;11.23;100.00;99508.06;5044008;28;45446;-47
2024/01/02 10:45:51;;;;;;;;;0.00;0.00;;;;;11.25;100.00;99516.78;5068952;28;45528;-50
2024/01/02 10:48:16;;;;;;;;;0.00;0.00;;;;;11.25;100.00;99517.66;5079371;28;50249;-46
2024/01/02 10:50:56;;;;;;;;;0.00;0.00;;;;;11.20;100.00;99500.31;5074598;28;46332;-49
2024/01/02 10:53:42;;;;;;;;;0.00;0.00;;;;;11.16;100.00;99502.34;5073174;28;45360;-51
2024/01/02 10:56:34;;;;;;;;;0.00;0.00;;;;;11.12;100.00;99486.72;5062232;28;45371;-47
2024/01/02 10:59:40;;;;;;;;;0.00;0.00;;;;;11.09;100.00;99479.81;5074948;28;46277;-48
2024/01/02 11:02:34;;;;;;;;;0.00;0.00;;;;;11.04;100.00;99477.50;5056905;28;45337;-52
2024/01/02 11:05:29;;;;;;;;;0.00;0.00;;;;;11.01;100.00;99483.03;5078671;28;45455;-47
2024/01/02 11:08:06;;;;;;;;;0.00;0.00;;;;;11.00;100.00;99473.38;5077119;28;45526;-50
2024/01/02 11:10:38;;;;;;;;;0.00;0.00;;;;;11.00;100.00;99477.81;5078775;28;45793;-46
2024/01/02 11:13:08;;;;;;;;;0.00;0.00;;;;;11.01;100.00;99468.88;5058310;28;45403;-50
2024/01/02 11:15:38;;;;;;;;;0.00;0.00;;;;;11.03;100.00;99462.47;5051504;28;45467;-48
2024/01/02 11:18:05;;;;;;;;;0.00;0.00;;;;;11.08;100.00;99470.97;5062561;28;45185;-50
2024/01/02 11:20:55;;;;;;;;;0.00;0.00;;;;;11.14;100.00;99475.00;5067876;28;45590;-47
2024/01/02 11:23:25;;;;;;;;;0.00;0.00;;;;;11.18;100.00;99462.31;5078287;28;45327;-50
2024/01/02 11:26:12;;;;;;;;;0.00;0.00;;;;;11.20;100.00;99457.75;5074134;28;45549;-50